M I D A S
Marine Information and Data Acquisition System
Tripno 796 of the Zeeleeuw from 2004-10-26 06:30:00 to 2004-10-26 17:40:00
Back to CruiseResearch ActivitiesStationsMapUnderway DataData graphs

EquipmentUnitsComment
TimeDGPSUTC
LatitudeDGPSDM.mWGS84
LongitudeDGPSDM.mWGS84
HeadingGyrodeg 
SOGDGPSknotsSpeed over ground
COGDGPSdegCourse over ground
DepthEcho soundermeters200 kHz
Missing or incorrect values are displayed as -999
Navigation data collected by the RV Zeeleeuw from 2004-10-26 06:30:00 to 2004-10-26 17:40:00
Time Latitude Longitude Heading SOG COG Depth
2004-10-26 06:31:06 51°13.597 2°56.112 125.9   241 7.8
2004-10-26 06:32:04 51°13.595 2°56.112 126.2   220 7.9
2004-10-26 06:33:17 51°13.596 2°56.112 125.1   184 7.9
2004-10-26 06:34:14 51°13.597 2°56.112 125.6   139 7.9
2004-10-26 06:35:31 51°13.596 2°56.112 125.7   239 5.8
2004-10-26 06:36:34 51°13.595 2°56.113 125.7   150 8
2004-10-26 06:37:42 51°13.594 2°56.113 125.8   341 7.9
2004-10-26 06:38:46 51°13.592 2°56.113 126   95 8
2004-10-26 06:39:43 51°13.593 2°56.113 126.2 0.1 213 8
2004-10-26 06:40:50 51°13.595 2°56.113 127.4   223 8
2004-10-26 06:41:50 51°13.596 2°56.113 119.5 0.1 198 8
2004-10-26 06:42:56 51°13.606 2°56.078 115.9 2.9 296 -999
2004-10-26 06:43:54 51°13.629 2°55.99 116.8 4.3 291 -999
2004-10-26 06:44:56 51°13.661 2°55.882 115 4.1 294 -999
2004-10-26 06:45:56 51°13.679 2°55.783 101.8 3.7 284 -999
2004-10-26 06:46:56 51°13.692 2°55.766 48.6 2.1 34 13.8
2004-10-26 06:47:58 51°13.693 2°55.769 12.9 1.1 193 -999
2004-10-26 06:49:00 51°13.744 2°55.72 328.4 6.7 323 10.6
2004-10-26 06:49:59 51°13.862 2°55.609 339.1 9.1 335 10.6
2004-10-26 06:51:06 51°14.007 2°55.52 343.5 7.1 339 11.1
2004-10-26 06:52:06 51°14.113 2°55.456 342.2 7 338 10.9
2004-10-26 06:53:06 51°14.238 2°55.336 327.3 10 322 11.2
2004-10-26 06:54:06 51°14.348 2°55.111 308.7 11.6 304 10.8
2004-10-26 06:55:11 51°14.482 2°54.823 319.5 13.2 314 10.6
2004-10-26 06:56:11 51°14.658 2°54.607 330.6 13.6 322 9.7
2004-10-26 06:57:11 51°14.841 2°54.392 332.1 13.6 324 9.8
2004-10-26 06:58:11 51°15.021 2°54.18 331.7 13.4 323 8.8
2004-10-26 06:59:14 51°15.211 2°53.954 332.2 13.6 324 9.5
2004-10-26 07:00:14 51°15.394 2°53.742 332.5 13.6 324 10.1
2004-10-26 07:01:14 51°15.583 2°53.549 344 13.3 336 11.1
2004-10-26 07:02:14 51°15.788 2°53.418 347 13.3 337 11.6
2004-10-26 07:03:11 51°15.981 2°53.289 346.6 13.2 337 12.1
2004-10-26 07:04:18 51°16.21 2°53.145 347.1 13.2 338 12.5
2004-10-26 07:05:16 51°16.407 2°53.018 345.8 13.2 337 12.6
2004-10-26 07:06:18 51°16.618 2°52.884 346.7 13.1 338 11.7
2004-10-26 07:07:23 51°16.837 2°52.748 346.7 12.8 338 9.8
2004-10-26 07:08:23 51°17.037 2°52.616 345.8 13.1 338 10
2004-10-26 07:09:22 51°17.234 2°52.488 346.2 13.1 338 10.2
2004-10-26 07:10:23 51°17.438 2°52.351 345.6 13.1 337 10.7
2004-10-26 07:11:23 51°17.646 2°52.303 7.5 12.7 359 10.7
2004-10-26 07:12:23 51°17.857 2°52.297 7.2 12.7 1 10.8
2004-10-26 07:13:23 51°18.066 2°52.35 18 12.9 10 10.9
2004-10-26 07:14:24 51°18.281 2°52.404 16 12.8 9 11.3
2004-10-26 07:15:30 51°18.513 2°52.46 15.8 12.8 8 11.7
2004-10-26 07:16:30 51°18.718 2°52.545 24.6 12.6 18 12.2
2004-10-26 07:17:30 51°18.917 2°52.654 30 12.8 22 12.7
2004-10-26 07:18:30 51°19.112 2°52.784 29.1 12.7 23 13.3
2004-10-26 07:19:30 51°19.307 2°52.915 30.2 12.9 23 14
2004-10-26 07:20:30 51°19.506 2°53.047 29.8 13 22 14.4
2004-10-26 07:21:30 51°19.704 2°53.182 29.6 12.8 24 15.1
2004-10-26 07:22:30 51°19.896 2°53.323 33.1 12.8 27 15.7
2004-10-26 07:23:39 51°20.118 2°53.487 32.6 12.6 24 16.3
2004-10-26 07:24:40 51°20.312 2°53.63 32.4 12.7 24 16.6
2004-10-26 07:25:42 51°20.509 2°53.778 32.8 12.7 24 16.9
2004-10-26 07:26:52 51°20.733 2°53.943 31.5 12.7 24 17.1
2004-10-26 07:27:51 51°20.922 2°54.083 32.2 12.8 25 17.3
2004-10-26 07:28:51 51°21.112 2°54.238 35.7 12.9 28 17.4
2004-10-26 07:29:58 51°21.316 2°54.437 39.4 13 30 17.5
2004-10-26 07:31:02 51°21.506 2°54.635 39.5 12.9 34 17.7
2004-10-26 07:32:03 51°21.688 2°54.824 39 12.7 31 17.8
2004-10-26 07:33:03 51°21.867 2°55.004 36 12.7 28 18
2004-10-26 07:34:02 51°22.055 2°55.157 33.2 13 24 18.4
2004-10-26 07:35:07 51°22.265 2°55.322 34.3 13 28 19.3
2004-10-26 07:36:11 51°22.471 2°55.486 34.4 12.9 26 18.8
2004-10-26 07:37:12 51°22.667 2°55.638 31.3 12.9 24 18.9
2004-10-26 07:38:12 51°22.863 2°55.772 30.8 12.9 20 18.7
2004-10-26 07:39:11 51°23.055 2°55.905 30.6 12.8 24 19.3
2004-10-26 07:40:11 51°23.248 2°56.046 30.9 12.6 25 20.3
2004-10-26 07:41:12 51°23.447 2°56.186 30 12.8 23 19.7
2004-10-26 07:42:12 51°23.642 2°56.323 30.1 12.7 23 16.6
2004-10-26 07:43:11 51°23.833 2°56.457 29 12.7 21 17.1
2004-10-26 07:44:12 51°24.032 2°56.583 27 12.5 20 16.9
2004-10-26 07:45:12 51°24.226 2°56.707 27.5 12.6 21 16
2004-10-26 07:46:12 51°24.422 2°56.827 27.3 12.5 19 18.6
2004-10-26 07:47:11 51°24.613 2°56.941 27.5 12.4 21 20.5
2004-10-26 07:48:12 51°24.805 2°57.078 31.4 12.4 25 22.3
2004-10-26 07:49:11 51°24.992 2°57.217 31.5 12.6 25 23.6
2004-10-26 07:50:11 51°25.182 2°57.36 32.6 12.8 27 24.9
2004-10-26 07:51:10 51°25.37 2°57.502 30.3 12.8 24 25.6
2004-10-26 07:52:18 51°25.587 2°57.673 31.4 12.8 25 25
2004-10-26 07:53:18 51°25.779 2°57.824 32.6 12.8 28 25.4
2004-10-26 07:54:18 51°25.974 2°57.975 29.7 13.1 22 23.7
2004-10-26 07:55:18 51°26.164 2°58.127 32.2 12.7 27 21.8
2004-10-26 07:56:18 51°26.357 2°58.271 28.9 12.8 25 20.8
2004-10-26 07:57:22 51°26.565 2°58.416 29.4 12.8 24 19.6
2004-10-26 07:58:22 51°26.76 2°58.557 29.5 12.9 24 18.3
2004-10-26 07:59:22 51°26.952 2°58.704 32.9 12.8 29 18.3
2004-10-26 08:00:25 51°27.137 2°58.9 40.4 12.6 35 17.2
2004-10-26 08:01:31 51°27.312 2°59.138 43.9 12.6 40 18.5
2004-10-26 08:03:06 51°27.542 2°59.532 50.9 12.9 48 21.2
2004-10-26 08:04:04 51°27.678 2°59.775 49.1 12.5 48 20
2004-10-26 08:05:11 51°27.835 3°0.058 48.9 12.8 49 19.8
2004-10-26 08:06:16 51°27.979 3°0.345 56.3 12.6 55 22.5
2004-10-26 08:07:16 51°28.1 3°0.617 57.2 12.6 56 21.8
2004-10-26 08:08:24 51°28.241 3°0.927 56 12.8 57 22.4
2004-10-26 08:09:36 51°28.394 3°1.258 53.8 13 55 22.4
2004-10-26 08:10:40 51°28.528 3°1.548 56.7 12.6 53 22.8
2004-10-26 08:11:39 51°28.655 3°1.817 56 12.9 52 23.1
2004-10-26 08:12:43 51°28.791 3°2.11 56.4 13 54 23.1
2004-10-26 08:13:43 51°28.916 3°2.384 54.1 12.7 52 23.6
2004-10-26 08:14:48 51°29.055 3°2.684 54.6 13 52 23.7
2004-10-26 08:15:47 51°29.181 3°2.954 55.2 12.8 52 23.6
2004-10-26 08:16:52 51°29.318 3°3.252 56.1 12.9 54 23.3
2004-10-26 08:17:52 51°29.447 3°3.526 56.3 13 52 23.6
2004-10-26 08:18:57 51°29.592 3°3.813 52 12.7 48 23
2004-10-26 08:20:03 51°29.734 3°4.116 56.3 13 50 22.3
2004-10-26 08:21:08 51°29.875 3°4.412 54.9 12.8 52 23.6
2004-10-26 08:22:08 51°30.006 3°4.688 56 13 54 22.9
2004-10-26 08:23:11 51°30.144 3°4.971 55.1 12.8 51 22.1
2004-10-26 08:24:16 51°30.289 3°5.263 56.4 12.9 52 24
2004-10-26 08:25:21 51°30.43 3°5.559 53.8 12.9 51 23.9
2004-10-26 08:26:21 51°30.564 3°5.829 55 12.9 53 23.1
2004-10-26 08:27:21 51°30.695 3°6.099 55.7 13 51 24.4
2004-10-26 08:28:21 51°30.825 3°6.373 55.6 13 53 23.4
2004-10-26 08:29:21 51°30.957 3°6.646 56.9 12.9 52 23.4
2004-10-26 08:30:24 51°31.096 3°6.93 54.4 12.8 52 23.9
2004-10-26 08:31:23 51°31.226 3°7.193 55.6 12.7 53 21.8
2004-10-26 08:32:26 51°31.363 3°7.474 56.9 12.8 52 24.1
2004-10-26 08:33:29 51°31.501 3°7.754 55.5 12.7 52 22.9
2004-10-26 08:34:30 51°31.635 3°8.026 55 12.6 55 23.9
2004-10-26 08:35:30 51°31.765 3°8.293 54.6 12.6 53 23.7
2004-10-26 08:36:29 51°31.895 3°8.552 55.5 12.8 50 24.2
2004-10-26 08:37:44 51°32.056 3°8.892 56.4 12.9 54 23.9
2004-10-26 08:38:45 51°32.189 3°9.17 55.2 12.8 53 24.9
2004-10-26 08:39:49 51°32.33 3°9.462 54.1 13 53 25.1
2004-10-26 08:40:49 51°32.464 3°9.737 55.8 13.3 52 25.2
2004-10-26 08:41:53 51°32.605 3°10.034 54.7 13 52 26
2004-10-26 08:42:53 51°32.74 3°10.308 56 13 51 26.6
2004-10-26 08:44:00 51°32.885 3°10.622 55.1 13.2 54 26.8
2004-10-26 08:45:00 51°33.02 3°10.894 54.2 12.8 53 27
2004-10-26 08:46:02 51°33.157 3°11.166 54.4 12.7 48 28
2004-10-26 08:47:07 51°33.306 3°11.452 55.6 12.9 50 29.4
2004-10-26 08:48:16 51°33.46 3°11.761 54.5 12.8 54 29.9
2004-10-26 08:49:22 51°33.607 3°12.054 54.9 12.8 50 29.7
2004-10-26 08:50:22 51°33.74 3°12.32 55.8 12.8 51 29.9
2004-10-26 08:51:21 51°33.871 3°12.582 55.2 12.7 51 30
2004-10-26 08:52:22 51°34.006 3°12.852 54.2 12.8 50 30.4
2004-10-26 08:53:30 51°34.155 3°13.154 56.1 12.9 51 30.3
2004-10-26 08:54:36 51°34.303 3°13.446 55.1 12.8 48 31
2004-10-26 08:55:40 51°34.452 3°13.727 53.5 12.7 50 31.6
2004-10-26 08:56:47 51°34.599 3°14.023 56.8 12.8 53 32.2
2004-10-26 08:57:47 51°34.733 3°14.292 56.7 12.9 50 32.4
2004-10-26 08:58:46 51°34.868 3°14.556 54 13 49 31.2
2004-10-26 08:59:46 51°35.006 3°14.824 54.9 13.1 49 32.1
2004-10-26 09:00:52 51°35.157 3°15.124 54 13.1 54 32.5
2004-10-26 09:01:53 51°35.292 3°15.408 55.8 13.1 54 32
2004-10-26 09:02:56 51°35.434 3°15.708 53.9 13.4 53 31.6
2004-10-26 09:03:55 51°35.566 3°15.988 54.2 13.4 52 29.5
2004-10-26 09:04:55 51°35.703 3°16.269 54.5 13.4 55 31.7
2004-10-26 09:06:05 51°35.852 3°16.607 56.5 13.3 54 30.3
2004-10-26 09:07:09 51°35.993 3°16.912 54.7 13.3 51 31.8
2004-10-26 09:08:07 51°36.119 3°17.191 55.8 13.2 55 30.5
2004-10-26 09:09:21 51°36.279 3°17.544 54.7 13.3 52 31.8
2004-10-26 09:10:20 51°36.407 3°17.825 54.9 13.3 53 32
2004-10-26 09:11:20 51°36.541 3°18.112 54.8 13.4 51 31.3
2004-10-26 09:12:21 51°36.675 3°18.406 55.1 13.4 53 31.4
2004-10-26 09:13:24 51°36.813 3°18.715 56.6 13.6 52 31.5
2004-10-26 09:14:36 51°36.974 3°19.065 55.4 13.6 55 31.3
2004-10-26 09:15:44 51°37.123 3°19.397 56.6 13.4 55 30.7
2004-10-26 09:16:48 51°37.262 3°19.713 56 13.7 54 30.8
2004-10-26 09:18:01 51°37.42 3°20.067 55.5 13.7 52 30.3
2004-10-26 09:19:03 51°37.553 3°20.363 54.3 13.1 53 29.5
2004-10-26 09:20:24 51°37.727 3°20.745 55.7 13.1 56 28.7
2004-10-26 09:21:25 51°37.853 3°21.042 51.6 13 49 28.3
2004-10-26 09:22:25 51°37.992 3°21.31 49.3 13 49 28.1
2004-10-26 09:23:25 51°38.137 3°21.572 47.9 13 49 27.8
2004-10-26 09:24:29 51°38.291 3°21.859 50.1 13.4 47 27.1
2004-10-26 09:25:44 51°38.472 3°22.194 48.8 13.2 45 26.8
2004-10-26 09:26:53 51°38.643 3°22.497 48.7 13.4 47 25.7
2004-10-26 09:28:01 51°38.807 3°22.803 51.8 13.4 50 24.6
2004-10-26 09:29:01 51°38.95 3°23.074 51.2 13.2 50 24.4
2004-10-26 09:30:24 51°39.151 3°23.45 50.5 13.4 46 23.2
2004-10-26 09:31:32 51°39.317 3°23.759 50 13.4 46 22.3
2004-10-26 09:32:32 51°39.465 3°24.03 51.6 13.6 49 22.1
2004-10-26 09:33:57 51°39.676 3°24.411 48.5 13.5 47 21.5
2004-10-26 09:35:03 51°39.841 3°24.706 48.9 13.6 49 20.8
2004-10-26 09:36:07 51°39.999 3°24.994 50.9 13.5 51 20.3
2004-10-26 09:37:19 51°40.179 3°25.318 50.3 13.7 48 19.9
2004-10-26 09:38:19 51°40.329 3°25.592 50.1 13.4 48 19.6
2004-10-26 09:39:19 51°40.465 3°25.882 55.8 13.5 58 19.3
2004-10-26 09:40:19 51°40.598 3°26.174 55.5 13.5 53 20.1
2004-10-26 09:41:32 51°40.761 3°26.531 54.4 13.6 55 18.8
2004-10-26 09:42:45 51°40.923 3°26.892 53.7 13.6 52 17.9
2004-10-26 09:44:09 51°41.112 3°27.309 55.8 13.6 53 18.6
2004-10-26 09:45:14 51°41.266 3°27.617 49.4 13.7 46 17.2
2004-10-26 09:46:27 51°41.454 3°27.938 48.9 13.6 47 16.5
2004-10-26 09:47:31 51°41.623 3°28.221 47.1 13.9 46 15.1
2004-10-26 09:48:34 51°41.789 3°28.501 49.9 13.7 44 16.9
2004-10-26 09:49:34 51°41.959 3°28.739 37.7 13.2 34 18.5
2004-10-26 09:50:51 51°42.214 3°28.928 29.6 13.1 25 19.3
2004-10-26 09:51:55 51°42.426 3°29.091 29.1 13.2 26 18.8
2004-10-26 09:53:04 51°42.656 3°29.265 29.7 13.3 24 17.5
2004-10-26 09:54:21 51°42.912 3°29.464 29.9 13.4 28 16.8
2004-10-26 09:55:35 51°43.158 3°29.657 30.4 13.4 27 17.9
2004-10-26 09:56:41 51°43.371 3°29.842 37.3 13.1 34 19
2004-10-26 09:57:43 51°43.548 3°30.087 46 13.5 44 19.6
2004-10-26 09:58:45 51°43.719 3°30.344 46.9 13.4 46 20
2004-10-26 09:59:45 51°43.876 3°30.604 51.1 13.5 48 18.9
2004-10-26 10:00:47 51°44.027 3°30.89 54.9 13.7 51 19.8
2004-10-26 10:01:47 51°44.175 3°31.167 52.9 13.6 51 20
2004-10-26 10:02:55 51°44.346 3°31.478 52 13.6 47 19.4
2004-10-26 10:03:59 51°44.506 3°31.769 51.4 13.7 50 18
2004-10-26 10:05:13 51°44.683 3°32.122 59.1 13.9 52 16.6
2004-10-26 10:06:13 51°44.793 3°32.449 70.6 14.1 69 15.7
2004-10-26 10:07:12 51°44.876 3°32.796 72.2 14.1 66 13.6
2004-10-26 10:08:14 51°44.968 3°33.154 68.5 13.9 64 13.4
2004-10-26 10:09:19 51°45.06 3°33.532 71.8 14 65 13.3
2004-10-26 10:10:19 51°45.145 3°33.88 70.1 13.9 67 13.2
2004-10-26 10:11:19 51°45.214 3°34.237 77.6 13.9 75 13.3
2004-10-26 10:12:19 51°45.273 3°34.6 80.4 14.1 76 13.1
2004-10-26 10:13:23 51°45.273 3°35.002 90.8 14.5 87 13.9
2004-10-26 10:14:28 51°45.276 3°35.416 92.1 14.1 85 13.7
2004-10-26 10:15:29 51°45.32 3°35.696 59 7.2 58 13
2004-10-26 10:16:28 51°45.371 3°35.778 26.1 2.2 33 13.2
2004-10-26 10:17:33 51°45.382 3°35.801 359.1 0.8 70 13.4
2004-10-26 10:18:33 51°45.386 3°35.82 350.1 0.8 73 13.4
2004-10-26 10:19:33 51°45.389 3°35.839 342.8 0.7 80 13.5
2004-10-26 10:20:33 51°45.391 3°35.859 343.3 0.8 79 13.5
2004-10-26 10:21:34 51°45.392 3°35.881 345.8 0.8 89 13.4
2004-10-26 10:22:43 51°45.391 3°35.908 351.6 1 97 13.3
2004-10-26 10:23:47 51°45.39 3°35.935 358.5 0.9 96 12.8
2004-10-26 10:24:47 51°45.388 3°35.963 10.8 1.1 97 13
2004-10-26 10:25:51 51°45.385 3°35.992 16.9 1 97 13.1
2004-10-26 10:26:57 51°45.382 3°36.022 19.3 1.2 100 13
2004-10-26 10:28:01 51°45.38 3°36.05 21.8 1 96 12.8
2004-10-26 10:29:11 51°45.389 3°36.09 32.4 2.1 56 12.7
2004-10-26 10:30:13 51°45.417 3°36.154 48.4 3.2 53 12.8
2004-10-26 10:31:17 51°45.445 3°36.237 59.1 3.3 67 12.8
2004-10-26 10:32:19 51°45.47 3°36.318 55.1 3.2 65 12.3
2004-10-26 10:33:19 51°45.496 3°36.393 51.5 3.1 61 12.5
2004-10-26 10:34:19 51°45.521 3°36.467 56.9 3.1 64 12.5
2004-10-26 10:35:23 51°45.54 3°36.552 64.8 3.1 69 12.6
2004-10-26 10:36:23 51°45.561 3°36.628 53.4 3 61 12.5
2004-10-26 10:37:29 51°45.589 3°36.705 49.8 3.1 62 12.3
2004-10-26 10:38:28 51°45.615 3°36.777 51.5 3.2 61 12.5
2004-10-26 10:39:28 51°45.639 3°36.852 55.5 3.2 65 12.1
2004-10-26 10:40:32 51°45.664 3°36.934 56 3.1 66 12
2004-10-26 10:41:36 51°45.69 3°37.016 56.1 3.2 61 12
2004-10-26 10:42:35 51°45.713 3°37.092 55.8 3.3 66 12.2
2004-10-26 10:43:36 51°45.738 3°37.171 54 3.2 59 12.1
2004-10-26 10:44:35 51°45.764 3°37.246 51.8 3.3 65 12.2
2004-10-26 10:45:36 51°45.791 3°37.322 48.6 3.3 60 12.2
2004-10-26 10:46:35 51°45.82 3°37.394 44 3.1 55 12.4
2004-10-26 10:47:36 51°45.851 3°37.464 41.6 3.2 52 12.3
2004-10-26 10:48:35 51°45.882 3°37.532 43.4 3.3 58 12.2
2004-10-26 10:49:36 51°45.911 3°37.606 47.6 3.2 59 12.2
2004-10-26 10:50:35 51°45.941 3°37.678 45.8 3.4 56 12.9
2004-10-26 10:51:35 51°45.972 3°37.752 46.4 3.4 57 12.8
2004-10-26 10:52:36 51°46.005 3°37.828 45.5 3.4 55 12.8
2004-10-26 10:53:36 51°46.038 3°37.9 43.5 3.3 52 12.7
2004-10-26 10:54:36 51°46.068 3°37.974 45.8 3.4 57 13
2004-10-26 10:55:39 51°46.102 3°38.051 44.5 3.3 57 12.8
2004-10-26 10:56:39 51°46.135 3°38.125 45 3.5 56 12.3
2004-10-26 10:57:39 51°46.169 3°38.2 44.8 3.4 51 12.8
2004-10-26 10:58:47 51°46.207 3°38.285 44.4 3.6 57 12.2
2004-10-26 10:59:51 51°46.244 3°38.365 44.9 3.6 55 12.6
2004-10-26 11:01:00 51°46.284 3°38.454 44.9 3.7 63 12.7
2004-10-26 11:02:01 51°46.318 3°38.532 46.6 3.5 57 12.7
2004-10-26 11:03:01 51°46.351 3°38.613 51.7 3.8 57 12.2
2004-10-26 11:04:08 51°46.388 3°38.715 61.2 4 61 11.9
2004-10-26 11:05:09 51°46.416 3°38.819 76.6 4 72 12.3
2004-10-26 11:06:09 51°46.432 3°38.912 84.4 3.4 75 12
2004-10-26 11:07:07 51°46.443 3°38.996 91.6 3.5 84 12.1
2004-10-26 11:08:08 51°46.435 3°39.102 133.7 4 113 11.6
2004-10-26 11:09:15 51°46.396 3°39.16 198 2.2 162 11.4
2004-10-26 11:10:26 51°46.367 3°39.148 238.7 1.5 217 11.6
2004-10-26 11:11:33 51°46.345 3°39.095 245.2 2.8 242 11.9
2004-10-26 11:12:35 51°46.311 3°39.03 236.1 3.4 229 11.4
2004-10-26 11:13:44 51°46.271 3°38.954 238.4 3 232 11.8
2004-10-26 11:14:43 51°46.243 3°38.901 240.9 2.4 230 12.1
2004-10-26 11:15:48 51°46.215 3°38.847 238.8 2.3 234 11.7
2004-10-26 11:17:05 51°46.186 3°38.782 245 2.3 243 12.3
2004-10-26 11:18:18 51°46.162 3°38.716 246.5 2.3 242 12.1
2004-10-26 11:19:27 51°46.142 3°38.652 246.7 2.3 240 12.6
2004-10-26 11:20:26 51°46.121 3°38.597 241.7 2.6 241 12.6
2004-10-26 11:21:23 51°46.097 3°38.544 239.8 2.6 229 12.7
2004-10-26 11:22:32 51°46.067 3°38.483 240.3 2.6 231 12.2
2004-10-26 11:23:46 51°46.035 3°38.417 239.5 2.5 228 12.2
2004-10-26 11:24:51 51°46.007 3°38.359 239.3 2.4 231 12.4
2004-10-26 11:25:59 51°45.978 3°38.301 239.7 2.4 227 12.5
2004-10-26 11:27:07 51°45.95 3°38.241 240.2 2.6 230 12.2
2004-10-26 11:28:07 51°45.925 3°38.187 240 2.5 228 12.4
2004-10-26 11:29:11 51°45.898 3°38.132 235.9 2.5 229 12.3
2004-10-26 11:30:23 51°45.863 3°38.076 234.4 2.5 218 12.2
2004-10-26 11:31:33 51°45.828 3°38.021 234.5 2.5 224 12.5
2004-10-26 11:32:38 51°45.797 3°37.968 235.2 2.5 223 12.5
2004-10-26 11:33:43 51°45.765 3°37.914 235.8 2.5 227 12.2
2004-10-26 11:34:56 51°45.73 3°37.856 231.7 2.6 221 12.2
2004-10-26 11:35:56 51°45.698 3°37.812 229.8 2.6 220 12.9
2004-10-26 11:37:03 51°45.661 3°37.762 229.8 2.6 220 12.2
2004-10-26 11:38:07 51°45.625 3°37.714 229.9 2.6 219 12.2
2004-10-26 11:39:12 51°45.59 3°37.67 228.9 2.5 223 12.3
2004-10-26 11:40:21 51°45.552 3°37.62 230.8 2.6 222 12
2004-10-26 11:41:36 51°45.512 3°37.565 230.2 2.5 221 12
2004-10-26 11:42:43 51°45.477 3°37.514 232 2.5 227 12
2004-10-26 11:43:47 51°45.444 3°37.464 229.6 2.6 227 11.7
2004-10-26 11:44:55 51°45.404 3°37.421 224.8 2.5 214 11.4
2004-10-26 11:45:59 51°45.369 3°37.378 228.6 2.4 219 11.5
2004-10-26 11:46:56 51°45.346 3°37.348 230.6 1.3 224 11.5
2004-10-26 11:48:17 51°45.335 3°37.336 235.1 0.2 175 11.2
2004-10-26 11:49:27 51°45.332 3°37.335 236 0.8 211 11.3
2004-10-26 11:50:28 51°45.316 3°37.298 239 2.5 239 11.3
2004-10-26 11:51:35 51°45.282 3°37.231 226.4 3.1 221 11.4
2004-10-26 11:52:39 51°45.23 3°37.189 216.2 3.4 202 10.9
2004-10-26 11:53:43 51°45.179 3°37.146 222.5 3 211 10.5
2004-10-26 11:54:44 51°45.145 3°37.098 230.3 2.6 226 10.5
2004-10-26 11:55:52 51°45.11 3°37.045 229.5 2.6 224 10.5
2004-10-26 11:56:52 51°45.082 3°36.992 237.8 2.6 240 10.4
2004-10-26 11:57:56 51°45.06 3°36.927 240.1 2.5 236 10.5
2004-10-26 11:59:06 51°45.035 3°36.855 240.9 2.6 243 10.5
2004-10-26 12:00:13 51°45.013 3°36.784 241.4 2.7 242 10.7
2004-10-26 12:01:17 51°44.99 3°36.716 241.7 2.7 238 10.9
2004-10-26 12:02:22 51°44.97 3°36.644 249 2.7 253 11.1
2004-10-26 12:03:29 51°44.959 3°36.563 252.1 2.8 260 11.3
2004-10-26 12:04:27 51°44.947 3°36.494 246.9 2.7 251 11.2
2004-10-26 12:05:33 51°44.928 3°36.422 244.9 2.6 251 11.4
2004-10-26 12:06:33 51°44.916 3°36.352 250.2 2.8 251 11.4
2004-10-26 12:07:31 51°44.906 3°36.28 252.5 2.9 259 11.6
2004-10-26 12:08:32 51°44.895 3°36.205 250.6 2.9 256 11.8
2004-10-26 12:09:41 51°44.884 3°36.119 251.3 2.9 256 11.8
2004-10-26 12:10:39 51°44.885 3°36.044 267.8 3.1 282 11.9
2004-10-26 12:11:41 51°44.911 3°35.964 290.5 3.4 308 12.4
2004-10-26 12:12:41 51°44.963 3°35.91 319.3 4 341 12.8
2004-10-26 12:13:47 51°45.035 3°35.905 349 3.4 10 12.7
2004-10-26 12:14:47 51°45.084 3°35.93 358.3 2.8 22 13.1
2004-10-26 12:15:47 51°45.124 3°35.963 1.3 2.5 33 12.8
2004-10-26 12:16:47 51°45.157 3°35.999 3.2 2.3 37 13.1
2004-10-26 12:17:51 51°45.188 3°36.037 2.1 2.1 39 13.1
2004-10-26 12:18:57 51°45.216 3°36.078 5.8 2 43 13.2
2004-10-26 12:20:02 51°45.241 3°36.119 10.2 1.9 45 13
2004-10-26 12:21:01 51°45.262 3°36.158 12.4 1.8 48 13.2
2004-10-26 12:22:01 51°45.291 3°36.198 11.3 3.6 27 12.9
2004-10-26 12:23:10 51°45.375 3°36.17 305.5 4.9 319 13.3
2004-10-26 12:24:15 51°45.365 3°36.032 238.7 7.7 239 13.5
2004-10-26 12:25:20 51°45.275 3°35.758 244.4 11.9 244 13.6
2004-10-26 12:26:20 51°45.188 3°35.471 244 12 245 14.4
2004-10-26 12:27:20 51°45.102 3°35.181 244.8 12 244 14.7
2004-10-26 12:28:21 51°45.016 3°34.883 244.5 12.2 243 15
2004-10-26 12:29:21 51°44.927 3°34.587 244.1 12.3 245 15
2004-10-26 12:30:20 51°44.838 3°34.296 240.9 12.2 241 14.8
2004-10-26 12:31:21 51°44.724 3°34.019 233.2 12.2 231 14.7
2004-10-26 12:32:20 51°44.583 3°33.789 224.3 12.5 224 14.8
2004-10-26 12:33:25 51°44.418 3°33.552 221.2 12.3 219 15
2004-10-26 12:34:24 51°44.257 3°33.357 219.5 12.3 216 15.5
2004-10-26 12:35:37 51°44.059 3°33.112 218.9 12.2 217 15.9
2004-10-26 12:36:36 51°43.888 3°32.935 213.7 12.5 215 16.3
2004-10-26 12:37:36 51°43.7 3°32.799 204.8 12.4 201 16.3
2004-10-26 12:38:36 51°43.507 3°32.676 203.1 12.5 205 16
2004-10-26 12:39:37 51°43.305 3°32.569 197.6 12.5 192 15.3
2004-10-26 12:40:42 51°43.08 3°32.52 188.1 12.9 185 14.8
2004-10-26 12:41:41 51°42.872 3°32.56 170.2 13.3 161 14.2
2004-10-26 12:42:41 51°42.669 3°32.69 162 13.3 157 14.9
2004-10-26 12:43:46 51°42.45 3°32.841 157.9 13.4 153 15.6
2004-10-26 12:44:47 51°42.245 3°32.987 160.8 13.6 157 14.3
2004-10-26 12:45:52 51°42.027 3°33.138 159.6 13.7 155 13.2
2004-10-26 12:46:52 51°41.823 3°33.276 161 13.3 158 13.6
2004-10-26 12:48:03 51°41.579 3°33.438 162.7 13.3 156 15
2004-10-26 12:49:06 51°41.363 3°33.585 161.8 13.5 157 14.9
2004-10-26 12:50:05 51°41.161 3°33.72 163.2 13.4 155 14.8
2004-10-26 12:51:07 51°40.946 3°33.852 163.8 13.5 160 14.7
2004-10-26 12:52:11 51°40.719 3°33.924 180.1 12.8 176 14.8
2004-10-26 12:53:11 51°40.502 3°33.945 184.9 12.8 180 13.7
2004-10-26 12:54:19 51°40.267 3°33.88 207.1 12.2 207 14.4
2004-10-26 12:55:20 51°40.115 3°33.655 232.5 12.5 229 15.9
2004-10-26 12:56:19 51°39.981 3°33.41 231.3 12.6 227 15.1
2004-10-26 12:57:23 51°39.832 3°33.149 229.7 12.4 227 14.6
2004-10-26 12:58:35 51°39.676 3°32.844 237 12.2 236 14.3
2004-10-26 12:59:36 51°39.565 3°32.56 242.1 12.4 240 17.5
2004-10-26 13:00:36 51°39.462 3°32.271 243.5 12.5 241 18.6
2004-10-26 13:01:37 51°39.358 3°31.974 243.7 12.6 241 20
2004-10-26 13:02:54 51°39.228 3°31.598 242.7 12.5 243 19
2004-10-26 13:03:53 51°39.127 3°31.309 243.3 12.6 239 17.1
2004-10-26 13:04:54 51°38.998 3°31.044 220.2 12.7 214 15.8
2004-10-26 13:05:55 51°38.799 3°30.919 203.2 13 197 14.4
2004-10-26 13:06:56 51°38.597 3°30.8 205.4 12.7 203 12.7
2004-10-26 13:08:01 51°38.376 3°30.703 194.9 13 188 12.5
2004-10-26 13:09:05 51°38.145 3°30.693 183.4 13.9 177 11.6
2004-10-26 13:10:12 51°37.906 3°30.766 175.1 13.1 170 11.5
2004-10-26 13:11:15 51°37.679 3°30.849 169.6 13.4 164 10.9
2004-10-26 13:12:13 51°37.473 3°30.96 165.6 13.6 163 11.7
2004-10-26 13:13:15 51°37.297 3°31.053 171.9 7 163 12.4
2004-10-26 13:14:29 51°37.25 3°31.183 95.9 4 85 12.4
2004-10-26 13:15:29 51°37.264 3°31.251 58.3 1.8 63 12.3
2004-10-26 13:16:43 51°37.283 3°31.288 30.9 1.4 43 12.2
2004-10-26 13:17:45 51°37.314 3°31.339 60.7 2.9 59 12.2
2004-10-26 13:18:47 51°37.326 3°31.378 92.8 1 71 12.1
2004-10-26 13:19:47 51°37.332 3°31.405 112.1 1.2 66 12.1
2004-10-26 13:20:48 51°37.322 3°31.45 152.8 2.4 137 12.3
2004-10-26 13:21:55 51°37.279 3°31.451 219.6 2.7 212 12.2
2004-10-26 13:23:00 51°37.231 3°31.391 225.8 3.7 220 12.4
2004-10-26 13:24:01 51°37.196 3°31.332 232.8 2.7 238 12.4
2004-10-26 13:25:08 51°37.167 3°31.27 236.4 2.6 234 12.1
2004-10-26 13:26:16 51°37.14 3°31.207 240 2.5 241 12.5
2004-10-26 13:27:17 51°37.117 3°31.147 240.2 2.6 240 12.5
2004-10-26 13:28:36 51°37.087 3°31.067 240.6 2.7 241 12.5
2004-10-26 13:29:39 51°37.064 3°31.002 241.2 2.7 242 12.7
2004-10-26 13:31:03 51°37.034 3°30.915 243.4 2.7 243 12.7
2004-10-26 13:32:03 51°37.017 3°30.849 246.4 2.7 247 12.8
2004-10-26 13:33:07 51°36.999 3°30.777 248.8 2.8 250 12.8
2004-10-26 13:34:07 51°36.987 3°30.705 252.9 2.8 254 12.8
2004-10-26 13:35:15 51°36.974 3°30.622 251.7 2.8 255 13.1
2004-10-26 13:36:15 51°36.961 3°30.548 251.8 2.9 258 13.1
2004-10-26 13:37:22 51°36.948 3°30.466 251.2 2.8 252 12.2
2004-10-26 13:38:32 51°36.933 3°30.381 250.3 2.8 259 12.7
2004-10-26 13:39:37 51°36.919 3°30.303 251.1 2.8 255 12.7
2004-10-26 13:40:43 51°36.906 3°30.222 251.2 2.8 256 12.9
2004-10-26 13:41:48 51°36.892 3°30.143 250.4 2.8 254 13
2004-10-26 13:42:57 51°36.877 3°30.061 250 2.8 254 12.8
2004-10-26 13:44:02 51°36.864 3°29.982 250.7 2.8 252 12.9
2004-10-26 13:45:05 51°36.851 3°29.905 250.1 2.9 257 12.7
2004-10-26 13:46:05 51°36.838 3°29.83 249.9 2.9 258 12.6
2004-10-26 13:47:12 51°36.823 3°29.75 249.3 2.8 254 12.3
2004-10-26 13:48:21 51°36.808 3°29.666 250.8 2.9 256 12.3
2004-10-26 13:49:25 51°36.796 3°29.587 251.1 2.8 257 11.3
2004-10-26 13:50:33 51°36.787 3°29.5 256.1 3 262 10.9
2004-10-26 13:51:36 51°36.781 3°29.418 256.9 2.9 262 11.3
2004-10-26 13:52:43 51°36.777 3°29.331 257 2.9 261 10.7
2004-10-26 13:53:53 51°36.771 3°29.241 255.5 2.8 264 10.9
2004-10-26 13:54:57 51°36.767 3°29.159 258 2.9 267 11.1
2004-10-26 13:55:56 51°36.767 3°29.082 260.5 2.8 273 10.4
2004-10-26 13:56:57 51°36.769 3°29.021 258.5 1.9 278 10.7
2004-10-26 13:58:04 51°36.774 3°28.973 256 1.4 280 10.9
2004-10-26 13:59:12 51°36.766 3°28.915 223.9 2.2 223 10.9
2004-10-26 14:00:11 51°36.73 3°28.931 144.4 3 124 11.1
2004-10-26 14:01:17 51°36.739 3°29.025 76.9 3.3 59 10.3
2004-10-26 14:02:23 51°36.769 3°29.108 85.6 3.1 66 10.5
2004-10-26 14:03:28 51°36.783 3°29.19 95.1 2.9 78 11.1
2004-10-26 14:04:33 51°36.796 3°29.274 95.3 3.1 73 10.8
2004-10-26 14:05:36 51°36.807 3°29.359 95.7 3.1 77 10.4
2004-10-26 14:06:43 51°36.821 3°29.449 94.1 3.2 75 11.3
2004-10-26 14:07:47 51°36.831 3°29.536 99.9 3.1 80 11.4
2004-10-26 14:08:55 51°36.835 3°29.627 105.3 3 91 12.4
2004-10-26 14:10:11 51°36.835 3°29.727 107.7 3 89 12.3
2004-10-26 14:11:19 51°36.834 3°29.815 107.3 2.9 90 12.2
2004-10-26 14:12:19 51°36.834 3°29.892 106.5 2.9 94 12.5
2004-10-26 14:13:21 51°36.834 3°29.973 105.6 2.9 90 12.5
2004-10-26 14:14:23 51°36.835 3°30.054 105.4 2.9 88 12.6
2004-10-26 14:15:29 51°36.836 3°30.14 105.3 2.9 89 12.7
2004-10-26 14:16:28 51°36.837 3°30.216 105.6 2.9 90 12.4
2004-10-26 14:17:29 51°36.838 3°30.293 105.3 2.9 89 12.3
2004-10-26 14:18:28 51°36.839 3°30.367 105.1 2.8 92 12.2
2004-10-26 14:19:27 51°36.839 3°30.442 105.2 2.9 89 12
2004-10-26 14:20:29 51°36.839 3°30.52 104.8 2.8 93 12
2004-10-26 14:21:30 51°36.839 3°30.598 104.9 2.9 89 12.3
2004-10-26 14:22:35 51°36.838 3°30.68 105.4 2.9 92 12.4
2004-10-26 14:23:35 51°36.837 3°30.756 106.4 2.8 93 12.3
2004-10-26 14:24:35 51°36.835 3°30.832 105.9 2.8 91 12.5
2004-10-26 14:25:35 51°36.833 3°30.907 106.5 2.8 94 12.5
2004-10-26 14:26:35 51°36.831 3°30.982 104.5 2.8 93 12.4
2004-10-26 14:27:43 51°36.829 3°31.067 105 2.8 93 12.6
2004-10-26 14:28:47 51°36.827 3°31.146 105.2 2.7 94 12.4
2004-10-26 14:29:51 51°36.826 3°31.224 104.6 2.7 93 12.4
2004-10-26 14:31:05 51°36.823 3°31.314 105 2.7 92 12.4
2004-10-26 14:32:03 51°36.821 3°31.384 104.8 2.7 92 12.6
2004-10-26 14:33:11 51°36.818 3°31.467 105.6 2.8 91 12.4
2004-10-26 14:34:11 51°36.815 3°31.539 105.6 2.8 93 12.6
2004-10-26 14:35:15 51°36.812 3°31.619 104.9 2.7 96 12.5
2004-10-26 14:36:15 51°36.808 3°31.692 104.8 2.8 94 12.6
2004-10-26 14:37:15 51°36.804 3°31.764 107.2 2.6 98 12.4
2004-10-26 14:38:15 51°36.799 3°31.832 106.2 2.6 97 12.4
2004-10-26 14:39:15 51°36.796 3°31.901 101.5 2.5 94 12.2
2004-10-26 14:40:19 51°36.801 3°31.97 86.8 2.1 74 12.2
2004-10-26 14:41:25 51°36.818 3°32.016 72.4 1.6 51 12.1
2004-10-26 14:42:25 51°36.836 3°32.043 63.5 1.4 40 11.9
2004-10-26 14:43:35 51°36.857 3°32.063 52.5 1.3 19 11.8
2004-10-26 14:44:36 51°36.876 3°32.072 41 1.2 10 11.8
2004-10-26 14:45:35 51°36.895 3°32.076 34.8 1.1 7 11.7
2004-10-26 14:46:37 51°36.913 3°32.075 28.6 1 1 11.7
2004-10-26 14:47:37 51°36.93 3°32.07 20.8 1.1 345 11.5
2004-10-26 14:48:37 51°36.947 3°32.064 13 1 342 11.6
2004-10-26 14:49:43 51°36.963 3°32.053 8.7 0.9 335 11.4
2004-10-26 14:50:43 51°36.98 3°32.043 5.7 1.6 344 11.4
2004-10-26 14:51:55 51°37.042 3°31.965 304.8 5.7 298 11.4
2004-10-26 14:53:03 51°37.041 3°31.743 262.7 9.9 263 11.2
2004-10-26 14:54:12 51°37.001 3°31.379 253.7 13.8 254 11.3
2004-10-26 14:55:13 51°36.932 3°31.011 253.2 14.3 253 11.5
2004-10-26 14:56:12 51°36.868 3°30.652 254.2 14.2 254 11.6
2004-10-26 14:57:13 51°36.805 3°30.281 254 14.2 254 11.4
2004-10-26 14:58:18 51°36.74 3°29.886 254 14.1 256 10.6
2004-10-26 14:59:16 51°36.685 3°29.537 254.5 13.9 255 9.1
2004-10-26 15:00:29 51°36.594 3°29.108 249.5 14.1 251 9.4
2004-10-26 15:01:27 51°36.519 3°28.759 250.2 14.4 251 10.8
2004-10-26 15:02:31 51°36.436 3°28.373 250 14.3 252 10.4
2004-10-26 15:03:47 51°36.341 3°27.919 250 14 251 11.3
2004-10-26 15:04:52 51°36.268 3°27.527 254 14.2 255 12.2
2004-10-26 15:05:55 51°36.203 3°27.144 254 14.2 254 11.9
2004-10-26 15:06:55 51°36.142 3°26.78 253.7 13.9 255 11.3
2004-10-26 15:08:05 51°36.071 3°26.358 254 14 256 11.6
2004-10-26 15:09:18 51°36 3°25.916 253.3 14.2 256 11.8
2004-10-26 15:10:19 51°35.94 3°25.55 254.1 13.8 256 11.7
2004-10-26 15:11:37 51°35.865 3°25.08 253.2 14.2 256 11
2004-10-26 15:12:43 51°35.797 3°24.682 249.3 13.9 252 10.7
2004-10-26 15:13:51 51°35.711 3°24.281 248.2 14.1 252 12.2
2004-10-26 15:14:57 51°35.626 3°23.892 247.5 14.1 250 11.3
2004-10-26 15:16:02 51°35.545 3°23.505 248.3 14.1 251 10.6
2004-10-26 15:17:09 51°35.459 3°23.103 248.7 14.1 250 11.2
2004-10-26 15:18:15 51°35.362 3°22.717 244.5 14.1 247 10.6
2004-10-26 15:19:25 51°35.234 3°22.33 240.2 13.9 242 9.8
2004-10-26 15:20:31 51°35.108 3°21.968 235.8 14.2 238 9.8
2004-10-26 15:21:45 51°34.965 3°21.563 245.4 14.3 248 9.7
2004-10-26 15:22:45 51°34.876 3°21.207 246.7 14.3 248 10
2004-10-26 15:23:43 51°34.788 3°20.864 246.4 14.6 247 10.8
2004-10-26 15:24:45 51°34.662 3°20.531 235 14.3 237 11
2004-10-26 15:25:52 51°34.516 3°20.179 235.6 14.1 238 11.9
2004-10-26 15:26:51 51°34.395 3°19.864 236.9 14.1 239 12.5
2004-10-26 15:28:07 51°34.243 3°19.46 237.3 14 239 13.5
2004-10-26 15:29:15 51°34.108 3°19.099 237.8 13.9 241 14
2004-10-26 15:30:17 51°33.986 3°18.771 237.3 13.8 239 13.3
2004-10-26 15:31:15 51°33.871 3°18.466 237.8 13.8 237 13.3
2004-10-26 15:32:23 51°33.738 3°18.105 237.6 13.7 239 13.4
2004-10-26 15:33:27 51°33.613 3°17.768 237.6 13.8 242 13.1
2004-10-26 15:34:33 51°33.483 3°17.418 238 13.7 237 13.4
2004-10-26 15:35:39 51°33.353 3°17.067 237.5 13.8 238 13.4
2004-10-26 15:36:40 51°33.225 3°16.75 232 13.9 234 13.6
2004-10-26 15:37:46 51°33.072 3°16.427 231.3 13.8 232 13.9
2004-10-26 15:38:45 51°32.935 3°16.135 231.9 13.9 234 14.6
2004-10-26 15:39:45 51°32.793 3°15.842 230.7 13.9 233 14.6
2004-10-26 15:40:44 51°32.655 3°15.551 231.1 13.9 234 14.8
2004-10-26 15:41:46 51°32.508 3°15.247 230.7 13.9 232 15.2
2004-10-26 15:42:48 51°32.362 3°14.942 231.3 13.9 234 15
2004-10-26 15:43:48 51°32.22 3°14.648 231.7 14 232 15.4
2004-10-26 15:44:48 51°32.077 3°14.354 231.5 13.9 232 15.6
2004-10-26 15:45:49 51°31.93 3°14.057 231 14 231 15.6
2004-10-26 15:46:49 51°31.786 3°13.762 231.1 14 232 15.9
2004-10-26 15:47:50 51°31.64 3°13.463 231.7 13.9 234 16.4
2004-10-26 15:49:05 51°31.462 3°13.096 231.4 13.9 233 16.7
2004-10-26 15:50:07 51°31.313 3°12.793 231.1 13.9 232 16.9
2004-10-26 15:51:08 51°31.155 3°12.513 225.6 13.9 224 16.9
2004-10-26 15:52:08 51°30.997 3°12.24 226.4 14.1 227 16.8
2004-10-26 15:53:08 51°30.837 3°11.972 225.7 14.1 227 16.6
2004-10-26 15:54:08 51°30.679 3°11.701 226.1 13.9 225 16.3
2004-10-26 15:55:07 51°30.524 3°11.433 226.3 14.1 226 16.1
2004-10-26 15:56:08 51°30.362 3°11.159 226.1 13.9 228 16.1
2004-10-26 15:57:08 51°30.202 3°10.887 225.8 13.9 227 16.1
2004-10-26 15:58:07 51°30.047 3°10.618 225.6 14 228 16.3
2004-10-26 15:59:16 51°29.865 3°10.306 226 14.1 225 16.3
2004-10-26 16:00:15 51°29.707 3°10.042 224.1 14.1 225 16.1
2004-10-26 16:01:15 51°29.54 3°9.783 223 14.1 225 16
2004-10-26 16:02:15 51°29.371 3°9.524 222.4 14.1 225 15.8
2004-10-26 16:03:16 51°29.2 3°9.264 222.8 14 221 15.2
2004-10-26 16:04:15 51°29.036 3°9.01 221.9 14.1 224 14.9
2004-10-26 16:05:16 51°28.869 3°8.742 226.3 13.9 225 14.4
2004-10-26 16:06:15 51°28.713 3°8.473 226.3 13.9 226 13.5
2004-10-26 16:07:15 51°28.549 3°8.209 222.5 13.8 224 13.5
2004-10-26 16:08:15 51°28.378 3°7.957 222 13.8 222 13.8
2004-10-26 16:09:13 51°28.215 3°7.708 222.7 13.8 224 13.8
2004-10-26 16:10:15 51°28.04 3°7.447 221.5 13.9 223 13.7
2004-10-26 16:11:16 51°27.868 3°7.19 222.6 13.9 223 13.6
2004-10-26 16:12:15 51°27.701 3°6.942 223.4 14 225 13.5
2004-10-26 16:13:15 51°27.532 3°6.687 223.5 14 221 13.4
2004-10-26 16:14:14 51°27.366 3°6.436 221.9 13.9 222 13.2
2004-10-26 16:15:15 51°27.192 3°6.183 222.2 13.8 221 12.6
2004-10-26 16:16:15 51°27.023 3°5.931 222.4 13.8 224 11.6
2004-10-26 16:17:15 51°26.854 3°5.681 221.1 14.1 223 11
2004-10-26 16:18:15 51°26.685 3°5.426 223.3 14 225 11.1
2004-10-26 16:19:15 51°26.515 3°5.174 221.6 14 222 11
2004-10-26 16:20:15 51°26.346 3°4.921 222.2 14 225 10.8
2004-10-26 16:21:15 51°26.176 3°4.668 222.4 14.1 226 10.3
2004-10-26 16:22:12 51°26.009 3°4.439 217.7 13.9 218 10.5
2004-10-26 16:23:13 51°25.83 3°4.195 217.8 13.9 221 10.2
2004-10-26 16:24:15 51°25.646 3°3.945 218.1 13.9 220 9.7
2004-10-26 16:25:15 51°25.464 3°3.7 220.1 14.4 221 11.1
2004-10-26 16:26:15 51°25.285 3°3.445 219.4 14.5 220 12.3
2004-10-26 16:27:15 51°25.106 3°3.191 218.4 14.6 223 13.3
2004-10-26 16:28:20 51°24.914 3°2.909 219.8 14.6 224 14.3
2004-10-26 16:29:20 51°24.735 3°2.647 219.6 14.5 224 17.4
2004-10-26 16:30:20 51°24.555 3°2.384 219.8 14.8 224 18.3
2004-10-26 16:31:20 51°24.373 3°2.124 219.2 14.6 220 17.4
2004-10-26 16:32:20 51°24.19 3°1.867 219.2 14.7 221 17.5
2004-10-26 16:33:19 51°24.01 3°1.613 219.4 14.6 221 17
2004-10-26 16:34:20 51°23.823 3°1.353 219.4 14.4 221 16.7
2004-10-26 16:35:20 51°23.639 3°1.1 219.6 14.6 219 16.1
2004-10-26 16:36:20 51°23.455 3°0.845 219.1 14.7 222 15.7
2004-10-26 16:37:23 51°23.262 3°0.578 220.5 14.6 223 15
2004-10-26 16:38:29 51°23.059 3°0.301 219.1 14.5 220 14.5
2004-10-26 16:39:29 51°22.874 3°0.052 220.1 14.4 220 13.9
2004-10-26 16:40:29 51°22.688 2°59.804 218.4 14.4 219 13.1
2004-10-26 16:41:29 51°22.503 2°59.552 219.3 14.6 220 13.1
2004-10-26 16:42:27 51°22.324 2°59.311 220.1 14.5 220 12.8
2004-10-26 16:43:29 51°22.132 2°59.055 218.8 14.5 219 12.2
2004-10-26 16:44:29 51°21.946 2°58.804 219 14.7 220 12.2
2004-10-26 16:45:29 51°21.761 2°58.552 218.4 14.6 220 11.9
2004-10-26 16:46:29 51°21.575 2°58.302 217.9 14.6 220 11.9
2004-10-26 16:47:30 51°21.386 2°58.047 219.2 14.7 221 11.7
2004-10-26 16:48:29 51°21.203 2°57.8 219.9 14.5 220 11.7
2004-10-26 16:49:29 51°21.016 2°57.547 220.4 14.7 220 11.6
2004-10-26 16:50:29 51°20.828 2°57.298 219.1 14.7 220 11.5
2004-10-26 16:51:29 51°20.639 2°57.049 219.3 14.6 219 11.3
2004-10-26 16:52:36 51°20.428 2°56.77 218 14.9 219 11.3
2004-10-26 16:53:37 51°20.236 2°56.516 219.5 14.7 219 11.1
2004-10-26 16:54:36 51°20.05 2°56.269 218.6 14.7 219 11.1
2004-10-26 16:55:36 51°19.86 2°56.021 218.2 14.7 218 10.9
2004-10-26 16:56:37 51°19.669 2°55.764 219.8 14.9 219 10.7
2004-10-26 16:57:36 51°19.485 2°55.515 219.8 14.7 220 10.6
2004-10-26 16:58:37 51°19.295 2°55.256 220.6 14.7 221 10.3
2004-10-26 16:59:37 51°19.107 2°55.003 220.2 14.8 220 10.3
2004-10-26 17:00:37 51°18.919 2°54.751 221 14.8 221 10
2004-10-26 17:01:35 51°18.737 2°54.512 219.9 14.6 220 9.7
2004-10-26 17:02:35 51°18.545 2°54.271 218.4 14.7 218 9.4
2004-10-26 17:03:37 51°18.346 2°54.025 218 14.7 218 9.1
2004-10-26 17:04:45 51°18.117 2°53.786 209.8 14.6 208 8.7
2004-10-26 17:05:45 51°17.905 2°53.611 208.3 14 207 8.7
2004-10-26 17:06:51 51°17.668 2°53.433 202.6 14.2 202 8.1
2004-10-26 17:07:59 51°17.422 2°53.272 198.9 13.8 198 8
2004-10-26 17:08:59 51°17.2 2°53.167 192.5 13.8 191 7.3
2004-10-26 17:09:57 51°16.987 2°53.13 176.9 12.9 175 6.6
2004-10-26 17:10:56 51°16.778 2°53.205 171.4 14.5 174 9.6
2004-10-26 17:11:57 51°16.534 2°53.24 171.8 14.2 173 10.8
2004-10-26 17:12:59 51°16.29 2°53.304 166.7 14.3 168 11
2004-10-26 17:14:04 51°16.041 2°53.386 163.3 14 165 10.5
2004-10-26 17:15:17 51°15.763 2°53.492 165.3 14.1 169 9.9
2004-10-26 17:16:16 51°15.54 2°53.58 163.3 13.7 165 9.4
2004-10-26 17:17:15 51°15.334 2°53.717 149.7 13.7 151 8.5
2004-10-26 17:18:17 51°15.151 2°53.936 135.9 13.1 137 7.8
2004-10-26 17:19:17 51°14.994 2°54.167 137.1 12.7 139 7.3
2004-10-26 17:20:15 51°14.834 2°54.382 137.1 13.4 139 8.2
2004-10-26 17:21:19 51°14.656 2°54.623 138.9 12.9 141 8.2
2004-10-26 17:22:16 51°14.507 2°54.839 134.2 12.4 136 8.7
2004-10-26 17:23:18 51°14.361 2°55.085 133.6 11.9 132 9.2
2004-10-26 17:24:17 51°14.249 2°55.286 138.9 8.4 137 10.1
2004-10-26 17:25:18 51°14.16 2°55.393 148.7 5.7 146 10.2
2004-10-26 17:26:18 51°14.085 2°55.459 158.5 5 158 9.5
2004-10-26 17:27:19 51°13.997 2°55.519 158.3 6.4 157 10.1
2004-10-26 17:28:19 51°13.893 2°55.591 158.6 7 157 8.6
2004-10-26 17:29:18 51°13.789 2°55.674 148.9 7.1 146 8.3
2004-10-26 17:30:19 51°13.702 2°55.807 131.9 6.8 130 10.9
2004-10-26 17:31:19 51°13.649 2°55.934 123.9 5.2 122 8
2004-10-26 17:32:22 51°13.619 2°56.036 111.9 2.9 109 -999
2004-10-26 17:33:22 51°13.601 2°56.096 121.5 1.8 121 -999
2004-10-26 17:34:22 51°13.595 2°56.112 113.1 0.1 182 -999
2004-10-26 17:35:22 51°13.594 2°56.113 106.2 0.1 352 -999
2004-10-26 17:36:22 51°13.595 2°56.114 111.5 0.1 13 -999
2004-10-26 17:37:22 51°13.595 2°56.114 122.7 0.1 13 -999
2004-10-26 17:38:22 51°13.595 2°56.109 128.3 0.1 89 -999
2004-10-26 17:39:22 51°13.596 2°56.112 122   20 -999